Have a Safe July 4th! 

Flight Track Log - Related Links

Times and Time Zones

All times are in EDT time to prevent confusion due to time zone crossing. See the AAL832 flight status page for this flight to view local times or setup timezone preferences in your user account.

Time Position Orientation Groundspeed Altitude Reporting Facility
EDT Latitude Longitude Course Direction KTS MPH feet Rate Location/Type
Mon 06:09:27 PM 41.9667 -87.8500 180° South 177 204 3,200  Level Chicago TRACON
Mon 06:10:27 PM 41.9000 -87.8333 169° South 248 285 5,500 3,093 Climbing Chicago TRACON
Mon 06:11:00 PM 41.6579 -87.7177 166° South  Level Estimated
Mon 06:12:00 PM 41.5499 -87.6551 166° South  Level Estimated
Mon 06:12:41 PM 41.7364 -87.8228 177° South 285 328 13,200  Level Chicago Center
Mon 06:13:00 PM 41.4419 -87.5927 180° South  Level Estimated
Mon 06:14:00 PM 41.5874 -87.7680 166° South  Level FlightAware Approximate
Mon 06:14:00 PM 41.3339 -87.5305 180° South  Level Estimated
Mon 06:15:47 PM 41.4608 -87.7375 174° South 367 422 20,300  Level Chicago Center
Mon 06:16:49 PM 41.3450 -87.7236 175° South 415 478 22,800 2,366 Climbing Chicago Center
Mon 06:18:00 PM 41.2070 -87.7167 180° South  Level FlightAware Approximate
Mon 06:18:42 PM 41.1103 -87.7158 180° South 434 499 27,200  Level Indianapolis Center
Mon 06:20:00 PM 40.9838 -87.6884 176° South  Level FlightAware Approximate
Mon 06:20:58 PM 40.8269 -87.6736 176° South 461 531 31,100  Level Chicago Center
Mon 06:21:00 PM 40.7784 -87.6588 174° South  Level FlightAware Approximate
Mon 06:22:00 PM 40.6983 -87.6578 175° South 466 536 33,400  Level Chicago Center
Mon 06:23:02 PM 40.5725 -87.6408 174° South 457 526 35,500 1,759 Climbing Chicago Center
Mon 06:24:54 PM 40.3467 -87.5611 165° South 438 504 38,500 1,207 Climbing Indianapolis Center
Mon 06:25:56 PM 40.2372 -87.4944 155° Southeast 437 503 39,000 161 Climbing Indianapolis Center
Mon 06:28:00 PM 39.9958 -87.3478 155° Southeast 437 503 39,000  Level Indianapolis Center
Mon 06:29:02 PM 39.8850 -87.2825 156° South 440 506 39,000  Level Indianapolis Center
Mon 06:30:04 PM 39.7767 -87.2167 155° Southeast 436 502 39,000  Level Indianapolis Center
Mon 06:31:06 PM 39.6675 -87.1511 155° Southeast 433 498 39,000  Level Indianapolis Center
Mon 06:32:08 PM 39.5361 -87.0722 155° Southeast 437 503 39,000  Level Indianapolis Center
Mon 06:34:12 PM 39.3161 -86.9414 155° Southeast 438 504 39,000  Level Indianapolis Center
Mon 06:36:00 PM 39.1247 -86.8233 154° Southeast  Level FlightAware Approximate
Mon 06:37:19 PM 38.9694 -86.7192 152° Southeast 448 516 39,000  Level Indianapolis Center
Mon 06:38:20 PM 38.8575 -86.6433 152° Southeast 451 519 39,000  Level Indianapolis Center
Mon 06:39:23 PM 38.7458 -86.5681 152° Southeast 450 518 39,000  Level Indianapolis Center
Mon 06:40:25 PM 38.6331 -86.4919 152° Southeast 453 521 39,000  Level Indianapolis Center
Mon 06:41:27 PM 38.5203 -86.4161 152° Southeast 453 521 39,000  Level Indianapolis Center
Mon 06:42:29 PM 38.4061 -86.3408 153° Southeast 455 524 39,000  Level Indianapolis Center
Mon 06:43:00 PM 38.3940 -86.3348 152° Southeast  Level FlightAware Approximate
Mon 06:43:31 PM 38.2703 -86.2500 152° Southeast 456 525 39,000  Level Indianapolis Center
Mon 06:44:33 PM 38.1558 -86.1750 153° Southeast 459 528 39,000  Level Indianapolis Center
Mon 06:45:35 PM 38.0428 -86.0997 152° Southeast 457 526 39,000  Level Indianapolis Center
Mon 06:46:37 PM 37.9275 -86.0256 153° Southeast 460 529 39,000  Level Indianapolis Center
Mon 06:47:39 PM 37.8153 -85.9519 153° Southeast 453 521 39,000  Level Indianapolis Center
Mon 06:48:41 PM 37.7000 -85.8775 153° Southeast 458 527 39,000  Level Indianapolis Center
Mon 06:49:43 PM 37.5883 -85.8047 153° Southeast 453 521 39,000  Level Indianapolis Center
Mon 06:50:45 PM 37.4764 -85.7311 152° Southeast 451 519 39,000  Level Indianapolis Center
Mon 06:52:00 PM 37.3452 -85.6469 153° Southeast  Level FlightAware Approximate
Mon 06:52:49 PM 37.2328 -85.5753 153° Southeast 439 505 39,000  Level Indianapolis Center
Mon 06:53:51 PM 37.1144 -85.4986 153° Southeast 440 506 39,000  Level Indianapolis Center
Mon 06:54:53 PM 37.0161 -85.4361 153° Southeast 445 512 39,000  Level Indianapolis Center
Mon 06:55:55 PM 36.8942 -85.3978 166° South 459 528 39,000  Level Indianapolis Center
Mon 06:56:57 PM 36.7469 -85.3503 166° South 456 525 39,000  Level Indianapolis Center
Mon 06:58:00 PM 36.6257 -85.3196 169° South  Level FlightAware Approximate
Mon 06:59:01 PM 36.5011 -85.2672 169° South 458 527 39,000  Level Indianapolis Center
Mon 07:00:03 PM 36.3767 -85.2317 167° South 458 527 39,000  Level Indianapolis Center
Mon 07:00:22 PM 36.3258 -85.2189 169° South 465 535 39,000  Level Atlanta Center
Mon 07:01:22 PM 36.1989 -85.1811 166° South 470 541 39,000  Level Atlanta Center
Mon 07:02:22 PM 36.0764 -85.1433 166° South 470 541 39,000  Level Atlanta Center
Mon 07:05:13 PM 35.7278 -85.0372 166° South 468 539 39,000  Level Indianapolis Center
Mon 07:06:22 PM 35.5811 -84.9964 167° South 470 541 39,000  Level Atlanta Center
Mon 07:07:22 PM 35.4542 -84.9592 167° South 470 541 39,000  Level Atlanta Center
Mon 07:08:22 PM 35.3292 -84.9247 167° South 470 541 39,000  Level Atlanta Center
Mon 07:09:22 PM 35.2022 -84.8878 167° South 470 541 39,000  Level Atlanta Center
Mon 07:11:00 PM 35.0137 -84.8325 167° South  Level FlightAware Approximate
Mon 07:12:22 PM 34.8333 -84.7803 167° South 465 535 39,000  Level Atlanta Center
Mon 07:13:22 PM 34.7083 -84.7436 166° South 465 535 39,000  Level Atlanta Center
Mon 07:14:22 PM 34.5731 -84.7022 166° South 460 529 39,000  Level Atlanta Center
Mon 07:15:22 PM 34.4481 -84.6661 167° South 467 537 39,000  Level Atlanta Center
Mon 07:16:22 PM 34.3208 -84.6300 167° South 467 537 39,000  Level Atlanta Center
Mon 07:17:22 PM 34.1958 -84.5964 167° South 467 537 39,000  Level Atlanta Center
Mon 07:19:00 PM 34.0063 -84.5470 166° South  Level FlightAware Approximate
Mon 07:20:22 PM 33.8100 -84.5414 166° South 462 532 39,000  Level Atlanta Center
Mon 07:21:22 PM 33.6828 -84.5306 176° South 462 532 39,000  Level Atlanta Center
Mon 07:23:00 PM 33.4877 -84.5195 177° South  Level FlightAware Approximate
Mon 07:25:22 PM 33.1733 -84.5031 177° South 462 532 39,000  Level Atlanta Center
Mon 07:26:22 PM 33.0586 -84.4947 177° South 457 526 39,000  Level Atlanta Center
Mon 07:28:00 PM 32.8635 -84.4839 177° South  Level FlightAware Approximate
Mon 07:29:22 PM 32.6831 -84.4781 177° South 457 526 39,000  Level Atlanta Center
Mon 07:30:00 PM 32.6517 -84.4726 177° South  Level FlightAware Approximate
Mon 07:30:22 PM 32.5558 -84.4700 177° South 457 526 39,000  Level Atlanta Center
Mon 07:31:22 PM 32.4283 -84.4669 179° South 457 526 39,000  Level Atlanta Center
Mon 07:32:22 PM 32.3031 -84.4592 177° South 457 526 39,000  Level Atlanta Center
Mon 07:35:00 PM 32.0275 -84.4380 177° South  Level FlightAware Approximate
Mon 07:36:14 PM 31.7981 -84.4350 178° South 455 524 39,000  Level Jacksonville Center
Mon 07:38:14 PM 31.5436 -84.4064 175° South 465 535 39,000  Level Jacksonville Center
Mon 07:40:14 PM 31.3008 -84.2858 157° South 470 541 39,000  Level Jacksonville Center
Mon 07:41:14 PM 31.1908 -84.2308 157° South 479 551 39,000  Level Jacksonville Center
Mon 07:42:14 PM 31.0722 -84.1733 157° South 473 544 39,000  Level Jacksonville Center
Mon 07:44:00 PM 30.8898 -84.0455 159° South  Level FlightAware Approximate
Mon 07:45:14 PM 30.7169 -84.0017 159° South 468 539 39,000  Level Jacksonville Center
Mon 07:46:14 PM 30.5961 -83.9447 158° South 468 539 39,000  Level Jacksonville Center
Mon 07:47:14 PM 30.4819 -83.8906 158° South 463 533 39,000  Level Jacksonville Center
Mon 07:48:14 PM 30.3611 -83.8339 158° South 463 533 39,000  Level Jacksonville Center
Mon 07:49:14 PM 30.2425 -83.7797 158° South 463 533 39,000  Level Jacksonville Center
Mon 07:50:14 PM 30.1219 -83.7258 159° South 468 539 39,000  Level Jacksonville Center
Mon 07:51:14 PM 30.0031 -83.6697 158° South 468 539 39,000  Level Jacksonville Center
Mon 07:53:14 PM 29.7636 -83.5600 158° South 468 539 39,000  Level Jacksonville Center
Mon 07:54:14 PM 29.6450 -83.5067 159° South 468 539 39,000  Level Jacksonville Center
Mon 07:55:14 PM 29.5242 -83.4511 158° South 468 539 39,000  Level Jacksonville Center
Mon 07:56:14 PM 29.4033 -83.3956 158° South 468 539 39,000  Level Jacksonville Center
Mon 07:57:14 PM 29.2825 -83.3403 158° South 468 539 39,000  Level Jacksonville Center
Mon 07:58:14 PM 29.1636 -83.2872 159° South 463 533 39,000  Level Jacksonville Center
Mon 08:00:14 PM 28.9239 -83.1750 158° South 468 539 39,000  Level Jacksonville Center
Mon 08:01:14 PM 28.8031 -83.1225 159° South 468 539 39,000  Level Jacksonville Center
Mon 08:02:14 PM 28.6842 -83.0700 159° South 468 539 39,000  Level Jacksonville Center
Mon 08:03:46 PM 28.5033 -82.9925 159° South 466 536 39,000  Level Miami Center
Mon 08:05:00 PM 28.3692 -82.9260 156° South  Level FlightAware Approximate
Mon 08:05:46 PM 28.2619 -82.8828 156° South 460 529 39,000  Level Miami Center
Mon 08:06:46 PM 28.1450 -82.8317 159° South 460 529 39,000  Level Miami Center
Mon 08:08:00 PM 28.0114 -82.7642 156° South  Level FlightAware Approximate
Mon 08:08:46 PM 27.9056 -82.7253 156° South 465 535 39,000  Level Miami Center
Mon 08:09:46 PM 27.7781 -82.6764 161° South 453 521 39,000  Level Miami Center
Mon 08:10:46 PM 27.6636 -82.6214 157° South 453 521 39,000 -400 Level Miami Center
Mon 08:11:46 PM 27.5711 -82.5325 140° Southeast 485 558 38,200 -1,100 Descending Miami Center
Mon 08:13:00 PM 27.4927 -82.3848 141° Southeast  Level FlightAware Approximate
Mon 08:13:46 PM 27.3556 -82.3303 141° Southeast 484 557 35,700  Level Miami Center
Mon 08:14:46 PM 27.2550 -82.2319 139° Southeast 484 557 34,600 -1,100 Descending Miami Center
Mon 08:15:46 PM 27.1581 -82.1411 140° Southeast 484 557 33,500 -1,180 Descending Miami Center
Mon 08:17:00 PM 27.0676 -82.0046 141° Southeast  Level FlightAware Approximate
Mon 08:19:46 PM 26.7214 -81.7356 141° Southeast 500 575 28,700  Level Miami Center
Mon 08:20:46 PM 26.6286 -81.6436 138° Southeast 505 581 27,200 -1,550 Descending Miami Center
Mon 08:21:46 PM 26.5250 -81.5489 141° Southeast 492 566 25,600 -1,650 Descending Miami Center
Mon 08:22:46 PM 26.4278 -81.4592 140° Southeast 482 555 23,900 -1,700 Descending Miami Center
Mon 08:23:46 PM 26.3303 -81.3697 141° Southeast 472 543 22,200 -1,700 Descending Miami Center
Mon 08:24:00 PM 26.4176 -81.4275 141° Southeast  Level FlightAware Approximate
Mon 08:24:46 PM 26.2350 -81.2803 140° Southeast 455 524 20,500  Level Miami Center
Mon 08:25:00 PM 26.3215 -81.3562 141° Southeast  Level FlightAware Approximate
Mon 08:25:46 PM 26.1372 -81.1911 141° Southeast 455 524 18,600  Level Miami Center
Mon 08:26:40 PM 26.0417 -81.1092 142° Southeast 432 497 16,700 -1,857 Descending Miami Center
Mon 08:27:10 PM 25.9928 -81.0633 140° Southeast 425 489 16,000 -727 Descending Miami Center
Mon 08:27:46 PM 25.9564 -81.0253 137° Southeast 437 503 15,900  Descending Miami Center
Mon 08:28:11 PM 25.9094 -80.9867 144° Southeast 379 436 16,000  Climbing Miami Center
Mon 08:28:46 PM 25.8814 -80.9442 126° Southeast 403 464 15,900 -712 Descending Miami Center
Mon 08:30:00 PM 25.8366 -80.7943 85° East  Level FlightAware Approximate
Mon 08:31:08 PM 25.8578 -80.6500 85° East 389 448 13,900  Level Miami Center
Mon 08:31:46 PM 25.8533 -80.5878 95° East 375 432 13,000 -1,672 Descending Miami Center
Mon 08:32:09 PM 25.8250 -80.5453 127° Southeast 356 410 12,200 -1,500 Descending Miami Center
Mon 08:32:46 PM 25.8053 -80.4939 113° Southeast 352 405 11,500 -1,343 Descending Miami Center
Mon 08:33:16 PM 25.7711 -80.4422 126° Southeast 325 374 10,700 -900 Descending Miami Center
Mon 08:33:46 PM 25.7594 -80.4094 112° Southeast 333 383 10,600 -1,133 Descending Miami Center
Mon 08:34:46 PM 25.7214 -80.3392 121° Southeast 299 344 9,000 -1,043 Descending Miami Center
Mon 08:35:18 PM 25.6953 -80.2992 126° Southeast 265 305 9,000 -400 Level Miami Center
Mon 08:35:46 PM 25.6833 -80.2689 114° Southeast 279 321 8,600 -1,377 Descending Miami Center
Mon 08:36:19 PM 25.6614 -80.2222 118° Southeast 261 300 7,600 -1,085 Descending Miami Center
Mon 08:37:20 PM 25.6253 -80.1567 121° Southeast 249 287 6,900 -1,034 Descending Miami Center
Mon 08:38:15 PM 25.5892 -80.0936 122° Southeast 245 282 5,600 -1,322 Descending Miami Center
Mon 08:40:17 PM 25.6506 -80.0536 30° Northeast 215 247 3,000 -848 Descending Miami Center
Mon 08:41:19 PM 25.6894 -80.0986 314° West 190 219 3,000  Level Miami Center

Login

Don't have an account? Register now (free) for customized features, flight alerts, and more!